Harrisonburg, VA

9:44 AM EDT on August 29, 2015 (GMT -0400)
E. Rock Street Station | | Change Station
CLOSE
Current Station
Personal Weather Station
Location: Harrisonburg, VA
Elevation: 1348 ft
Nearby Weather Stations

Elev 1348 ft 38.45 °N, 78.86 °W | Updated 7 seconds ago

Partly Cloudy
Partly Cloudy
72.9 °F
Feels Like 76 °F
N
4.9
Wind Variable Wind from SW
Gusts 7.0 mph

Today
High -- | Low -- °F
--% Chance of Precip.
Yesterday
High -- | Low -- °F
Precip. -- in
6:42 AM 7:50 PM
Full, 100% visible
Pressure 30.26 in
Visibility 10.0 miles
Clouds Clear
Heat Index 76 °F
Dew Point 61 °F
Humidity 66%
Rainfall 0.00 in
Snow Depth Not available.
UV 4 out of 12
Pollen 9.40 out of 12
Air Quality Not available.
Flu Activity Not available.
METAR KSHD 291335Z AUTO 17005KT 10SM CLR 24/16 A3026 RMK AO2 T02390158
Pressure 30.26 in
Visibility 10.0 miles
Clouds Clear
Heat Index 76 °F
Dew Point 61 °F
Humidity 66%
Rainfall 0.00 in
Snow Depth Not available.
UV 4 out of 12
Pollen 9.40 out of 12
Air Quality Not available.
Flu Activity Not available.
METAR KSHD 291335Z AUTO 17005KT 10SM CLR 24/16 A3026 RMK AO2 T02390158

10-Day Weather Forecast

×

Almanac

Astronomy

Aug. 29, 2015 Rise Set
Actual Time
Civil Twilight
Nautical Twilight
Astronomical Twilight
Moon
Length of Visible Light
Length of Day
Tomorrow will be .
, % of the Moon is Illuminated

Today's Extremes

State Highs State Lows

Community

WunderPhotos

Upload Photos

1,850,686 photos uploaded!

WunderBlogs® & News

Nearby

Air Quality

  Air Quality AQ Index Pollutant
Not available.

Snow Depth

Station Depth Elevation

Earthquake Activity

City Distance Mag. Time & Date
Minimum magnitude displayed is 2.5.

Coastal Water Temperatures

Place Temperature

Stations

Nearby Weather Stations

Station Location Temp. Windchill Dew Point Humidity Wind Precip. Elev Updated Type